Time;durP1;ratioP1;P1;durP2;ratioP2;P2;SDS_P1;SDS_P2;PMS_P1;PMS_P2;Temp;Humidity;BMP_temperature;BMP_pressure;BME280_temperature;BME280_humidity;BME280_pressure;Samples;Min_cycle;Max_cycle;Signal;HPM_P1;HPM_P2
2022/01/16 00:00:26;;;;;;;20.95;13.93;;;;;;;-6.01;100.00;93522.28;2090473;28;20029;-82
2022/01/16 00:05:02;;;;;;;19.15;13.35;;;;;;;-6.05;100.00;93549.19;2103125;28;20031;-82
2022/01/16 00:06:03;;;;;;;24.25;13.60;;;;;;;-6.11;100.00;93558.97;2097562;28;20032;-81
2022/01/16 00:07:06;;;;;;;19.85;12.18;;;;;;;-6.15;100.00;93558.78;2097479;28;20156;-83
2022/01/16 00:08:09;;;;;;;21.42;12.73;;;;;;;-6.10;100.00;93566.47;2081024;28;20044;-82
2022/01/16 00:09:12;;;;;;;21.85;12.70;;;;;;;-6.07;100.00;93569.53;2089739;28;20131;-82
2022/01/16 00:10:14;;;;;;;20.50;12.18;;;;;;;-6.09;100.00;93578.41;2092443;28;20037;-83
2022/01/16 00:11:16;;;;;;;25.10;13.15;;;;;;;-6.13;100.00;93567.06;2080762;28;20103;-82
2022/01/16 00:12:19;;;;;;;25.02;13.30;;;;;;;-6.03;100.00;93578.28;2072638;28;20030;-82
2022/01/16 00:13:24;;;;;;;26.25;13.68;;;;;;;-6.20;100.00;93581.56;2092468;28;20032;-84
2022/01/16 00:14:28;;;;;;;18.70;11.35;;;;;;;-6.27;100.00;93582.00;2101382;28;20197;-83
2022/01/16 00:15:29;;;;;;;21.25;13.70;;;;;;;-6.27;100.00;93576.03;2097773;28;20028;-81
2022/01/16 00:16:35;;;;;;;19.30;12.48;;;;;;;-6.25;100.00;93579.09;2088964;28;20032;-83
2022/01/16 00:17:48;;;;;;;19.90;11.98;;;;;;;-6.29;100.00;93573.72;2082336;28;20047;-81
2022/01/16 00:18:49;;;;;;;22.63;13.23;;;;;;;-6.27;100.00;93566.41;2091907;28;20021;-81
2022/01/16 00:19:53;;;;;;;20.52;12.63;;;;;;;-6.32;100.00;93553.53;2100332;28;20028;-82
2022/01/16 00:20:55;;;;;;;20.45;12.90;;;;;;;-6.27;100.00;93547.44;2082091;28;20025;-83
2022/01/16 00:21:57;;;;;;;19.15;12.07;;;;;;;-6.33;100.00;93546.78;2089928;28;20029;-82
2022/01/16 00:22:59;;;;;;;22.90;13.38;;;;;;;-6.39;100.00;93542.78;2098094;28;20070;-83
2022/01/16 00:24:00;;;;;;;23.88;13.93;;;;;;;-6.42;100.00;93536.31;2098126;28;20090;-81
2022/01/16 00:25:02;;;;;;;19.40;12.43;;;;;;;-6.40;100.00;93533.44;2089773;28;20033;-81
2022/01/16 00:26:04;;;;;;;21.25;12.13;;;;;;;-6.35;100.00;93539.28;2090187;28;20028;-81
2022/01/16 00:27:05;;;;;;;18.88;11.95;;;;;;;-6.24;100.00;93541.59;2087675;28;20104;-82
2022/01/16 00:28:06;;;;;;;22.55;13.10;;;;;;;-6.33;100.00;93544.16;2089886;28;20029;-83
2022/01/16 00:29:08;;;;;;;23.42;13.07;;;;;;;-6.40;100.00;93557.63;2089627;28;20031;-81
2022/01/16 00:30:10;;;;;;;20.75;12.40;;;;;;;-6.31;100.00;93555.06;2090058;28;20892;-83
2022/01/16 00:31:11;;;;;;;19.88;12.75;;;;;;;-6.44;100.00;93551.47;2081766;28;20041;-83
2022/01/16 00:32:14;;;;;;;21.80;13.25;;;;;;;-6.48;100.00;93550.53;2081562;28;20051;-84
2022/01/16 00:33:16;;;;;;;22.58;12.95;;;;;;;-6.47;100.00;93546.09;2090080;28;20044;-82
2022/01/16 00:34:16;;;;;;;19.50;12.88;;;;;;;-6.50;100.00;93547.44;2081473;28;20033;-81
2022/01/16 00:35:18;;;;;;;22.80;13.02;;;;;;;-6.54;100.00;93556.16;2089315;28;20028;-82
2022/01/16 00:36:21;;;;;;;20.27;13.25;;;;;;;-6.59;100.00;93544.81;2089727;28;20024;-82
2022/01/16 00:37:22;;;;;;;20.08;13.68;;;;;;;-6.59;100.00;93555.19;2090053;28;20025;-81
2022/01/16 00:38:23;;;;;;;23.48;13.40;;;;;;;-6.68;100.00;93551.03;2085966;28;20021;-82
2022/01/16 00:39:29;;;;;;;19.83;11.27;;;;;;;-6.64;100.00;93554.56;2081389;28;20032;-83
2022/01/16 00:40:35;;;;;;;19.35;12.85;;;;;;;-6.65;100.00;93561.59;2082185;28;20037;-82
2022/01/16 00:41:40;;;;;;;19.15;13.43;;;;;;;-6.62;100.00;93566.22;2084838;28;20127;-81
2022/01/16 00:42:41;;;;;;;21.55;12.82;;;;;;;-6.64;100.00;93559.75;2098444;28;20473;-84
2022/01/16 00:43:46;;;;;;;22.50;12.48;;;;;;;-6.49;100.00;93551.59;2098163;28;20032;-83
2022/01/16 00:44:53;;;;;;;18.00;12.02;;;;;;;-6.48;100.00;93539.38;2097987;28;20131;-82
2022/01/16 00:45:55;;;;;;;17.60;12.70;;;;;;;-6.61;100.00;93546.94;2098724;28;20039;-82
2022/01/16 00:46:58;;;;;;;21.83;12.38;;;;;;;-6.57;100.00;93557.53;2098087;28;20029;-81
2022/01/16 00:47:59;;;;;;;23.05;13.43;;;;;;;-6.68;100.00;93567.38;2089913;28;20071;-81
2022/01/16 00:49:00;;;;;;;23.50;12.07;;;;;;;-6.76;100.00;93560.31;2081362;28;20199;-84
2022/01/16 00:50:01;;;;;;;17.35;11.90;;;;;;;-6.76;100.00;93567.31;2080806;28;20111;-82
2022/01/16 00:51:03;;;;;;;20.60;12.25;;;;;;;-6.71;100.00;93567.22;2089288;28;20029;-83
2022/01/16 00:52:04;;;;;;;22.02;12.85;;;;;;;-6.72;100.00;93569.03;2089666;28;20037;-82
2022/01/16 00:53:08;;;;;;;21.05;12.30;;;;;;;-6.76;100.00;93554.31;2097900;28;20496;-82
2022/01/16 00:54:10;;;;;;;16.55;11.90;;;;;;;-6.77;100.00;93550.19;2106512;28;20384;-83
2022/01/16 00:55:11;;;;;;;22.88;12.73;;;;;;;-6.72;100.00;93543.03;2097902;28;20493;-82
2022/01/16 00:56:13;;;;;;;18.77;12.13;;;;;;;-6.75;100.00;93541.06;2081213;28;20375;-81
2022/01/16 00:57:14;;;;;;;19.20;12.23;;;;;;;-6.73;100.00;93564.13;2081170;28;20071;-82
2022/01/16 00:58:15;;;;;;;22.95;12.82;;;;;;;-6.74;100.00;93563.38;2073159;28;20044;-83
2022/01/16 00:59:16;;;;;;;21.17;12.23;;;;;;;-6.66;100.00;93554.88;2081516;28;20025;-82
2022/01/16 01:00:17;;;;;;;17.75;11.57;;;;;;;-6.70;100.00;93553.94;2089611;28;20024;-82
2022/01/16 01:01:18;;;;;;;21.58;12.85;;;;;;;-6.75;100.00;93564.44;2089339;28;20032;-82
2022/01/16 01:02:19;;;;;;;20.08;11.50;;;;;;;-6.65;100.00;93566.03;2097264;28;20024;-81
2022/01/16 01:03:25;;;;;;;22.80;11.82;;;;;;;-6.77;100.00;93571.75;2097749;28;20032;-83
2022/01/16 01:04:29;;;;;;;18.48;12.25;;;;;;;-6.79;100.00;93566.09;2105865;28;20024;-82
2022/01/16 01:05:36;;;;;;;20.92;12.50;;;;;;;-6.76;100.00;93569.91;2098122;28;20032;-81
2022/01/16 01:06:37;;;;;;;22.90;12.63;;;;;;;-6.57;100.00;93574.97;2098577;28;20035;-82
2022/01/16 01:07:39;;;;;;;23.23;13.15;;;;;;;-6.60;100.00;93571.09;2097719;28;20564;-82
2022/01/16 01:08:41;;;;;;;22.50;12.98;;;;;;;-6.73;100.00;93584.94;2089576;28;20056;-82
2022/01/16 01:09:48;;;;;;;22.30;12.48;;;;;;;-6.67;100.00;93581.13;2089687;28;20120;-83
2022/01/16 01:10:53;;;;;;;18.77;12.13;;;;;;;-6.72;100.00;93582.03;2098510;28;20047;-81
2022/01/16 01:11:54;;;;;;;23.08;13.40;;;;;;;-6.70;100.00;93584.34;2090541;28;20060;-81
2022/01/16 01:13:07;;;;;;;21.45;13.25;;;;;;;-6.77;100.00;93584.00;2089550;28;20762;-83
2022/01/16 01:14:40;;;;;;;22.52;13.23;;;;;;;-6.62;100.00;93566.22;2092748;28;20032;-83
2022/01/16 01:15:46;;;;;;;23.55;13.50;;;;;;;-6.78;100.00;93554.63;2102060;28;20024;-82
2022/01/16 01:16:57;;;;;;;27.77;14.70;;;;;;;-6.91;100.00;93540.63;2090154;28;20109;-83
2022/01/16 01:17:59;;;;;;;;;;;;;;;-6.94;100.00;93506.69;2093378;28;20119;-83
2022/01/16 01:19:00;;;;;;;22.67;12.75;;;;;;;-7.01;100.00;93495.97;2106388;28;19912;-82
2022/01/16 01:20:02;;;;;;;24.45;13.80;;;;;;;-7.00;100.00;93510.47;2114383;28;20114;-83
2022/01/16 01:21:05;;;;;;;26.17;14.77;;;;;;;-7.04;100.00;93493.94;2115217;28;20023;-83
2022/01/16 01:22:06;;;;;;;23.08;13.45;;;;;;;-6.96;100.00;93495.84;2099517;28;20028;-81
2022/01/16 01:23:09;;;;;;;21.65;14.10;;;;;;;-6.75;100.00;93493.50;2083486;28;20094;-82
2022/01/16 01:24:10;;;;;;;21.95;14.60;;;;;;;-6.86;100.00;93480.00;2089629;28;20039;-82
2022/01/16 01:25:13;;;;;;;22.83;14.52;;;;;;;-6.86;100.00;93485.19;2081135;28;20021;-81
2022/01/16 01:26:14;;;;;;;27.85;14.93;;;;;;;-6.96;100.00;93488.03;2089676;28;20035;-81
2022/01/16 01:27:23;;;;;;;23.50;14.05;;;;;;;-6.97;100.00;93486.50;2089343;28;20020;-83
2022/01/16 01:28:24;;;;;;;21.95;14.52;;;;;;;-7.08;100.00;93485.22;2092286;28;20050;-84
2022/01/16 01:29:28;;;;;;;23.75;14.43;;;;;;;-7.07;100.00;93492.69;2097402;28;20071;-81
2022/01/16 01:30:29;;;;;;;28.63;15.85;;;;;;;-7.06;100.00;93504.63;2089531;28;20063;-82
2022/01/16 01:31:30;;;;;;;28.25;14.57;;;;;;;-6.92;100.00;93513.13;2089345;28;20025;-82
2022/01/16 01:32:36;;;;;;;26.00;15.43;;;;;;;-7.05;100.00;93521.75;2097496;28;20032;-82
2022/01/16 01:33:37;;;;;;;23.02;14.65;;;;;;;-7.05;100.00;93531.38;2098407;28;20056;-82
2022/01/16 01:34:39;;;;;;;22.23;14.43;;;;;;;-7.07;100.00;93542.03;2089293;28;20447;-81
2022/01/16 01:35:41;;;;;;;25.23;15.60;;;;;;;-7.03;100.00;93531.84;2089664;28;20056;-83
2022/01/16 01:36:47;;;;;;;23.45;15.02;;;;;;;-7.11;100.00;93544.50;2097619;28;20430;-82
2022/01/16 01:37:49;;;;;;;24.50;15.73;;;;;;;-7.16;100.00;93551.59;2090100;28;20039;-82
2022/01/16 01:38:51;;;;;;;26.02;15.23;;;;;;;-7.22;100.00;93566.53;2089734;28;20032;-83
2022/01/16 01:39:55;;;;;;;26.40;14.88;;;;;;;-7.27;100.00;93561.47;2089636;28;20139;-81
2022/01/16 01:41:01;;;;;;;25.15;15.68;;;;;;;-7.27;100.00;93561.47;2090331;28;20028;-82
2022/01/16 01:42:07;;;;;;;25.05;15.73;;;;;;;-7.32;100.00;93563.41;2090008;28;20803;-80
2022/01/16 01:51:06;;;;;;;24.40;13.77;;;;;;;-7.21;100.00;93557.69;2099789;28;20571;-81
2022/01/16 01:52:11;;;;;;;26.33;14.80;;;;;;;-7.24;100.00;93555.69;2096385;28;20056;-83
2022/01/16 01:53:15;;;;;;;27.08;16.45;;;;;;;-7.28;100.00;93554.75;2098041;28;20412;-80
2022/01/16 01:54:16;;;;;;;27.73;15.85;;;;;;;-7.37;100.00;93562.44;2106206;28;20645;-80
2022/01/16 01:55:18;;;;;;;25.08;15.27;;;;;;;-7.22;100.00;93563.94;2097355;28;20032;-82
2022/01/16 01:56:22;;;;;;;26.83;16.02;;;;;;;-7.32;100.00;93566.75;2089470;28;20039;-83
2022/01/16 01:57:23;;;;;;;27.25;16.08;;;;;;;-7.34;100.00;93566.28;2089892;28;20029;-81
2022/01/16 01:58:24;;;;;;;27.33;17.40;;;;;;;-7.08;100.00;93576.88;2097333;28;20199;-82
2022/01/16 01:59:26;;;;;;;26.20;16.27;;;;;;;-7.12;100.00;93573.34;2089094;28;20107;-83
2022/01/16 02:00:28;;;;;;;30.85;17.40;;;;;;;-7.18;100.00;93572.69;2097642;28;20535;-81
2022/01/16 02:01:30;;;;;;;28.05;16.38;;;;;;;-7.15;100.00;93569.50;2096914;28;20032;-82
2022/01/16 02:02:41;;;;;;;29.58;17.08;;;;;;;-7.08;100.00;93581.31;2097597;28;20024;-81
2022/01/16 02:03:42;;;;;;;28.05;17.45;;;;;;;-7.22;100.00;93584.72;2090409;28;20386;-82
2022/01/16 02:04:43;;;;;;;26.05;17.77;;;;;;;-7.22;100.00;93587.31;2089232;28;20424;-81
2022/01/16 02:05:44;;;;;;;27.08;17.67;;;;;;;-7.26;100.00;93595.97;2089268;28;20051;-83
2022/01/16 02:06:46;;;;;;;31.70;17.60;;;;;;;-7.32;100.00;93595.31;2096415;28;20524;-82
2022/01/16 02:07:47;;;;;;;23.95;15.57;;;;;;;-7.38;100.00;93591.28;2105663;28;20050;-83
2022/01/16 02:10:23;;;;;;;;;;;;;;;-7.44;100.00;93600.25;2148653;27;20113;-81
2022/01/16 02:11:28;;;;;;;25.08;14.50;;;;;;;-7.43;100.00;93609.56;2130051;27;20368;-82
2022/01/16 02:12:30;;;;;;;28.88;16.67;;;;;;;-7.54;100.00;93603.06;2114214;27;20522;-82
2022/01/16 02:13:45;;;;;;;28.52;16.88;;;;;;;-7.53;100.00;93609.78;2116374;27;20479;-82
2022/01/16 02:14:59;;;;;;;27.13;16.42;;;;;;;-7.57;100.00;93601.81;2130198;27;20458;-80
2022/01/16 02:28:12;;;;;;;31.50;16.98;;;;;;;-7.57;100.00;93611.41;2129016;27;20467;-81
2022/01/16 02:31:28;;;;;;;26.00;15.93;;;;;;;-7.29;100.00;93594.72;2114231;28;20449;-82
2022/01/16 02:33:21;;;;;;;29.73;17.73;;;;;;;-7.42;100.00;93590.31;2129759;27;20026;-83
2022/01/16 02:35:14;;;;;;;28.98;17.55;;;;;;;-7.52;100.00;93586.13;2115771;28;20437;-83
2022/01/16 02:36:31;;;;;;;32.70;17.67;;;;;;;-7.53;100.00;93592.38;2104672;28;20449;-84
2022/01/16 02:37:38;;;;;;;34.67;19.27;;;;;;;-7.54;100.00;93587.47;2100438;28;20441;-83
2022/01/16 02:38:47;;;;;;;31.10;17.77;;;;;;;-7.42;100.00;93592.94;2097722;28;20450;-81
2022/01/16 02:40:04;;;;;;;30.13;18.55;;;;;;;-7.46;100.00;93592.75;2106547;28;20435;-82
2022/01/16 02:41:11;;;;;;;32.40;17.90;;;;;;;-7.50;100.00;93588.44;2106647;28;20525;-84
2022/01/16 02:42:26;;;;;;;32.30;18.73;;;;;;;-7.52;100.00;93585.34;2105819;28;20035;-83
2022/01/16 02:43:36;;;;;;;30.15;17.38;;;;;;;-7.54;100.00;93587.47;2114638;28;20977;-83
2022/01/16 02:45:00;;;;;;;30.98;18.98;;;;;;;-7.62;100.00;93583.75;2118100;27;20494;-82
2022/01/16 02:46:36;;;;;;;29.23;18.77;;;;;;;-7.57;100.00;93581.03;2124348;27;20039;-82
2022/01/16 02:47:34;;;;;;;33.45;18.40;;;;;;;-7.43;100.00;93584.38;2128871;27;20991;-82
2022/01/16 02:48:42;;;;;;;34.55;18.38;;;;;;;-7.42;100.00;93574.75;2120125;28;20515;-83
2022/01/16 02:49:51;;;;;;;32.20;19.00;;;;;;;-7.48;100.00;93570.75;2122157;27;21016;-83
2022/01/16 02:50:57;;;;;;;34.88;20.52;;;;;;;-7.52;100.00;93560.16;2112938;28;20997;-83
2022/01/16 02:52:04;;;;;;;34.00;20.60;;;;;;;-7.62;100.00;93555.19;2101719;28;20040;-81
2022/01/16 02:53:11;;;;;;;35.65;19.48;;;;;;;-7.44;100.00;93545.72;2106001;28;20501;-83
2022/01/16 02:54:18;;;;;;;31.75;19.63;;;;;;;-7.47;100.00;93547.06;2113472;28;20453;-82
2022/01/16 02:55:21;;;;;;;36.28;20.13;;;;;;;-7.47;100.00;93546.31;2121020;28;20829;-83
2022/01/16 02:56:23;;;;;;;34.45;19.70;;;;;;;-7.41;100.00;93551.13;2104452;28;20889;-83
2022/01/16 02:57:31;;;;;;;32.42;20.70;;;;;;;-7.52;100.00;93544.59;2096170;28;20558;-81
2022/01/16 02:58:36;;;;;;;33.65;19.92;;;;;;;-7.54;100.00;93551.16;2097817;28;20447;-81
2022/01/16 02:59:50;;;;;;;30.33;18.70;;;;;;;-7.60;100.00;93547.88;2105594;28;20032;-81
2022/01/16 03:00:54;;;;;;;36.47;20.33;;;;;;;-7.66;100.00;93557.59;2121183;27;20478;-82
2022/01/16 03:01:55;;;;;;;36.35;21.08;;;;;;;-7.71;100.00;93547.31;2121647;27;20045;-82
2022/01/16 03:02:56;;;;;;;35.40;20.33;;;;;;;-7.71;100.00;93541.38;2121276;27;20754;-83
2022/01/16 03:03:57;;;;;;;34.83;19.30;;;;;;;-7.65;100.00;93540.97;2112649;28;20540;-81
2022/01/16 03:04:58;;;;;;;31.15;19.05;;;;;;;-7.62;100.00;93552.59;2112632;28;20015;-81
2022/01/16 03:05:59;;;;;;;36.22;20.98;;;;;;;-7.71;100.00;93544.72;2121236;28;20023;-81
2022/01/16 03:07:05;;;;;;;34.05;19.27;;;;;;;-7.82;100.00;93543.38;2104197;28;20550;-82
2022/01/16 03:08:08;;;;;;;33.80;19.52;;;;;;;-7.74;100.00;93542.72;2105684;28;20185;-82
2022/01/16 03:09:15;;;;;;;35.88;20.80;;;;;;;-7.79;100.00;93547.25;2112843;28;20110;-82
2022/01/16 03:11:39;;;;;;;36.15;20.13;;;;;;;-7.71;100.00;93544.72;2121980;27;20114;-82
2022/01/16 03:12:48;;;;;;;30.05;17.92;;;;;;;-7.75;100.00;93538.59;2129569;27;20419;-82
2022/01/16 03:13:50;;;;;;;33.63;20.17;;;;;;;-7.85;100.00;93538.78;2122223;27;20019;-82
2022/01/16 03:14:51;;;;;;;30.33;18.98;;;;;;;-7.86;100.00;93543.22;2121059;27;20049;-81
2022/01/16 03:15:54;;;;;;;35.10;19.98;;;;;;;-7.69;100.00;93534.81;2121151;27;20033;-81
2022/01/16 03:16:56;;;;;;;32.95;19.65;;;;;;;-7.59;100.00;93539.03;2121237;27;20023;-82
2022/01/16 03:21:53;;;;;;;30.92;19.45;;;;;;;-7.91;100.00;93526.97;2101242;28;20209;-81
2022/01/16 03:22:59;;;;;;;35.78;20.73;;;;;;;-7.87;100.00;93530.53;2090677;28;21111;-82
2022/01/16 03:24:05;;;;;;;32.92;18.48;;;;;;;-7.74;100.00;93531.56;2099866;28;20560;-80
2022/01/16 03:25:06;;;;;;;36.05;20.13;;;;;;;-7.72;100.00;93534.66;2098473;28;20031;-82
2022/01/16 03:26:07;;;;;;;34.40;19.92;;;;;;;-7.81;100.00;93526.00;2082118;28;20459;-82
2022/01/16 03:27:11;;;;;;;32.25;20.25;;;;;;;-7.78;100.00;93535.78;2090216;28;20021;-81
2022/01/16 03:28:12;;;;;;;31.10;17.83;;;;;;;-7.78;100.00;93526.19;2098401;28;20082;-81
2022/01/16 03:29:13;;;;;;;34.05;20.17;;;;;;;-7.67;100.00;93532.72;2090088;28;20815;-82
2022/01/16 03:30:14;;;;;;;35.13;19.38;;;;;;;-7.56;100.00;93522.88;2087971;28;20077;-81
2022/01/16 03:31:15;;;;;;;32.15;19.58;;;;;;;-7.63;100.00;93522.53;2115460;28;20028;-81
2022/01/16 03:32:19;;;;;;;31.85;19.38;;;;;;;-7.76;100.00;93521.47;2123745;27;20019;-81
2022/01/16 03:33:27;;;;;;;28.23;18.15;;;;;;;-7.87;100.00;93514.94;2107370;28;20031;-81
2022/01/16 03:34:32;;;;;;;32.15;20.52;;;;;;;-7.84;100.00;93511.78;2100381;28;20097;-82
2022/01/16 03:35:37;;;;;;;31.00;18.85;;;;;;;-7.84;100.00;93511.03;2098254;28;20240;-82
2022/01/16 03:36:43;;;;;;;32.92;18.85;;;;;;;-7.80;100.00;93522.34;2091442;28;20070;-82
2022/01/16 03:37:48;;;;;;;28.13;17.45;;;;;;;-7.88;100.00;93514.19;2099045;28;20441;-81
2022/01/16 03:38:54;;;;;;;33.17;19.98;;;;;;;-7.92;100.00;93518.41;2099047;28;20017;-82
2022/01/16 03:39:56;;;;;;;34.28;19.50;;;;;;;-7.81;100.00;93524.19;2090632;28;20489;-81
2022/01/16 03:41:01;;;;;;;33.33;19.98;;;;;;;-7.84;100.00;93532.53;2098754;28;20120;-82
2022/01/16 03:42:05;;;;;;;31.70;18.95;;;;;;;-7.93;100.00;93526.50;2106845;28;20758;-82
2022/01/16 03:43:13;;;;;;;32.63;19.13;;;;;;;-7.89;100.00;93522.28;2098266;28;21065;-81
2022/01/16 03:44:15;;;;;;;32.85;18.92;;;;;;;-7.93;100.00;93526.50;2091136;28;20036;-82
2022/01/16 03:45:16;;;;;;;31.52;19.10;;;;;;;-7.95;100.00;93528.59;2090091;28;20024;-82
2022/01/16 03:46:17;;;;;;;32.42;18.73;;;;;;;-7.95;100.00;93524.19;2090108;28;20017;-82
2022/01/16 03:47:18;;;;;;;32.17;19.30;;;;;;;-7.99;100.00;93531.03;2098184;28;20052;-81
2022/01/16 03:48:19;;;;;;;31.20;18.67;;;;;;;-7.97;100.00;93526.31;2089968;28;20025;-83
2022/01/16 03:49:24;;;;;;;30.50;18.75;;;;;;;-7.96;100.00;93525.25;2098516;28;20427;-82
2022/01/16 03:50:26;;;;;;;33.83;20.55;;;;;;;-8.01;100.00;93527.19;2098940;28;20977;-82
2022/01/16 03:51:27;;;;;;;29.25;18.80;;;;;;;-8.09;100.00;93526.03;2107095;27;20032;-81
2022/01/16 03:52:30;;;;;;;32.05;19.33;;;;;;;-7.86;100.00;93530.25;2114973;28;20468;-80
2022/01/16 03:53:31;;;;;;;31.75;18.45;;;;;;;-7.97;100.00;93530.72;2098853;28;20028;-81
2022/01/16 03:54:33;;;;;;;30.10;18.58;;;;;;;-7.93;100.00;93526.50;2106692;28;20442;-83
2022/01/16 03:55:38;;;;;;;33.40;18.38;;;;;;;-8.01;100.00;93525.34;2106799;28;20037;-81
2022/01/16 03:56:40;;;;;;;31.38;18.20;;;;;;;-8.05;100.00;93521.03;2107705;28;20438;-83
2022/01/16 03:57:41;;;;;;;29.98;18.58;;;;;;;-8.02;100.00;93521.22;2106627;28;20450;-82
2022/01/16 03:58:42;;;;;;;32.38;19.10;;;;;;;-8.12;100.00;93529.19;2106650;28;21068;-83
2022/01/16 03:59:45;;;;;;;36.58;19.95;;;;;;;-8.03;100.00;93529.28;2114997;28;20023;-83
2022/01/16 04:00:46;;;;;;;35.13;20.15;;;;;;;-8.00;100.00;93523.53;2114958;28;20068;-83
2022/01/16 04:01:47;;;;;;;33.42;19.45;;;;;;;-8.02;100.00;93530.84;2098104;28;20446;-82
2022/01/16 04:02:49;;;;;;;33.20;19.65;;;;;;;-7.98;100.00;93531.78;2106580;28;20038;-82
2022/01/16 04:03:51;;;;;;;31.38;19.23;;;;;;;-8.06;100.00;93527.28;2106757;27;20024;-85
2022/01/16 04:04:56;;;;;;;33.08;20.35;;;;;;;-8.10;100.00;93537.47;2115289;27;21009;-83
2022/01/16 04:05:58;;;;;;;31.38;19.08;;;;;;;-7.95;100.00;93528.59;2115400;27;20448;-82
2022/01/16 04:07:01;;;;;;;32.63;19.58;;;;;;;-8.01;100.00;93532.38;2106648;28;20858;-82
2022/01/16 04:08:07;;;;;;;33.80;19.02;;;;;;;-8.05;100.00;93539.94;2107055;27;20446;-81
2022/01/16 04:09:14;;;;;;;31.25;17.88;;;;;;;-8.05;100.00;93534.00;2124064;27;20435;-84
2022/01/16 04:10:15;;;;;;;29.02;17.10;;;;;;;-8.07;100.00;93543.91;2114809;28;20469;-83
2022/01/16 04:11:25;;;;;;;31.20;17.88;;;;;;;-8.19;100.00;93557.34;2094724;28;20979;-83
2022/01/16 04:12:29;;;;;;;26.25;17.45;;;;;;;-8.01;100.00;93558.28;2099490;28;20438;-82
2022/01/16 04:13:33;;;;;;;28.17;17.33;;;;;;;-8.11;100.00;93560.03;2098076;28;20032;-82
2022/01/16 04:15:50;;;;;;;29.02;18.05;;;;;;;-8.02;100.00;93552.34;2099838;28;20446;-81
2022/01/16 04:16:52;;;;;;;33.60;18.08;;;;;;;-7.97;100.00;93552.25;2090034;28;20443;-82
2022/01/16 04:17:53;;;;;;;31.02;18.38;;;;;;;-7.99;100.00;93562.16;2090103;28;20516;-81
2022/01/16 04:18:57;;;;;;;31.02;17.55;;;;;;;-8.09;100.00;93548.59;2098266;28;20534;-83
2022/01/16 04:20:02;;;;;;;28.83;18.08;;;;;;;-8.11;100.00;93556.66;2098956;28;20419;-81
2022/01/16 04:21:03;;;;;;;31.73;18.50;;;;;;;-8.21;100.00;93549.06;2098117;28;20497;-83
2022/01/16 04:22:06;;;;;;;31.17;17.48;;;;;;;-8.11;100.00;93549.66;2095580;28;20454;-82
2022/01/16 04:23:12;;;;;;;31.80;17.15;;;;;;;-8.23;100.00;93546.75;2106731;28;20485;-81
2022/01/16 04:24:16;;;;;;;29.48;17.45;;;;;;;-8.18;100.00;93553.69;2104672;28;20441;-82
2022/01/16 04:25:19;;;;;;;28.05;17.23;;;;;;;-8.23;100.00;93549.34;2090945;28;20571;-81
2022/01/16 04:26:20;;;;;;;30.27;17.40;;;;;;;-8.29;100.00;93554.94;2090133;28;20494;-81
2022/01/16 04:27:24;;;;;;;28.83;17.48;;;;;;;-8.36;100.00;93553.47;2089662;28;20454;-81
2022/01/16 04:28:30;;;;;;;28.20;16.67;;;;;;;-8.27;100.00;93551.00;2098682;28;20442;-81
2022/01/16 04:29:32;;;;;;;27.50;18.15;;;;;;;-8.16;100.00;93552.34;2104547;27;20458;-81
2022/01/16 04:30:33;;;;;;;33.65;18.27;;;;;;;-8.08;100.00;93543.09;2118792;27;20457;-81
2022/01/16 04:31:33;;;;;;;30.20;18.30;;;;;;;-8.24;100.00;93544.47;2114792;28;20448;-81
2022/01/16 04:32:35;;;;;;;28.52;16.98;;;;;;;-8.23;100.00;93554.53;2108488;28;20990;-79
2022/01/16 04:33:36;;;;;;;31.73;17.38;;;;;;;-8.27;100.00;93545.81;2105420;28;20074;-80
2022/01/16 04:34:37;;;;;;;31.05;17.85;;;;;;;-8.19;100.00;93555.50;2104074;28;20822;-80
2022/01/16 04:35:37;;;;;;;29.02;17.38;;;;;;;-8.28;100.00;93549.44;2095957;28;20454;-82
2022/01/16 04:36:39;;;;;;;27.65;17.55;;;;;;;-8.31;100.00;93557.03;2094394;28;20016;-80
2022/01/16 04:37:39;;;;;;;30.33;18.23;;;;;;;-8.39;100.00;93554.06;2092593;28;20043;-80
2022/01/16 04:38:46;;;;;;;28.40;17.42;;;;;;;-8.29;100.00;93552.34;2100857;28;20458;-81
2022/01/16 04:39:52;;;;;;;30.80;16.88;;;;;;;-8.31;100.00;93547.44;2109004;28;20020;-81
2022/01/16 04:43:49;;;;;;;26.95;15.75;;;;;;;-8.29;100.00;93541.97;2100059;28;20461;-80
2022/01/16 04:44:51;;;;;;;30.25;16.75;;;;;;;-8.25;100.00;93541.13;2107711;28;20545;-80
2022/01/16 04:45:52;;;;;;;29.20;17.05;;;;;;;-8.32;100.00;93550.31;2097891;28;20459;-81
2022/01/16 04:46:53;;;;;;;27.63;15.70;;;;;;;-8.33;100.00;93544.38;2105847;28;20445;-80
2022/01/16 04:47:55;;;;;;;28.10;16.55;;;;;;;-8.05;100.00;93549.56;2106114;28;20053;-79
2022/01/16 04:48:57;;;;;;;27.50;17.15;;;;;;;-8.19;100.00;93547.72;2102134;28;20469;-82
2022/01/16 04:49:58;;;;;;;28.85;17.05;;;;;;;-8.28;100.00;93541.69;2101703;28;20475;-81
2022/01/16 04:50:59;;;;;;;25.38;16.63;;;;;;;-8.31;100.00;93537.06;2101622;28;20447;-81
2022/01/16 04:52:00;;;;;;;27.48;17.02;;;;;;;-8.37;100.00;93533.06;2114357;28;20023;-79
2022/01/16 04:53:01;;;;;;;29.38;16.85;;;;;;;-8.27;100.00;93539.84;2104641;28;20031;-81
2022/01/16 04:54:02;;;;;;;27.00;17.77;;;;;;;-8.36;100.00;93544.94;2090758;28;20478;-81
2022/01/16 04:55:04;;;;;;;25.77;16.95;;;;;;;-8.36;100.00;93542.34;2105906;28;20442;-81
2022/01/16 04:56:06;;;;;;;26.38;17.38;;;;;;;-8.36;100.00;93539.75;2101518;28;20024;-80
2022/01/16 04:57:07;;;;;;;27.35;16.85;;;;;;;-8.28;100.00;93536.50;2085115;28;20547;-81
2022/01/16 04:58:07;;;;;;;27.02;16.75;;;;;;;-8.28;100.00;93539.09;2103979;28;20444;-83
2022/01/16 04:59:08;;;;;;;27.70;17.58;;;;;;;-8.30;100.00;93541.19;2100003;28;20048;-81
2022/01/16 05:00:14;;;;;;;29.70;17.20;;;;;;;-8.24;100.00;93547.06;2106093;28;20012;-82
2022/01/16 05:01:16;;;;;;;30.90;17.42;;;;;;;-8.22;100.00;93544.94;2103584;28;20017;-82
2022/01/16 05:02:17;;;;;;;27.08;17.60;;;;;;;-8.36;100.00;93550.88;2101174;28;20533;-81
2022/01/16 05:03:18;;;;;;;29.90;18.55;;;;;;;-8.39;100.00;93555.91;2102494;28;20811;-81
2022/01/16 05:04:19;;;;;;;28.95;18.05;;;;;;;-8.40;100.00;93551.78;2101202;28;20034;-80
2022/01/16 05:05:20;;;;;;;26.60;16.48;;;;;;;-8.39;100.00;93550.72;2102190;28;20700;-81
2022/01/16 05:06:21;;;;;;;25.35;17.13;;;;;;;-8.33;100.00;93554.72;2101639;28;20424;-81
2022/01/16 05:07:22;;;;;;;24.50;16.52;;;;;;;-8.43;100.00;93547.94;2110168;28;20032;-81
2022/01/16 05:08:23;;;;;;;25.17;17.60;;;;;;;-8.27;100.00;93555.41;2127922;27;20482;-80
2022/01/16 05:09:24;;;;;;;27.40;16.67;;;;;;;-8.31;100.00;93562.97;2110002;28;20024;-82
2022/01/16 05:10:27;;;;;;;27.02;16.67;;;;;;;-8.33;100.00;93559.91;2101366;28;20483;-81
2022/01/16 05:11:28;;;;;;;26.08;18.05;;;;;;;-8.42;100.00;93559.84;2109758;28;20114;-79
2022/01/16 05:12:38;;;;;;;24.88;17.27;;;;;;;-8.38;100.00;93566.00;2105973;28;20457;-80
2022/01/16 05:17:19;;;;;;;27.02;17.45;;;;;;;-8.47;100.00;93580.66;2119070;27;20183;-82
2022/01/16 05:18:20;;;;;;;24.00;15.98;;;;;;;-8.43;100.00;93573.06;2101266;28;20043;-81
2022/01/16 05:19:21;;;;;;;26.50;17.02;;;;;;;-8.37;100.00;93575.31;2101308;28;20036;-79
2022/01/16 05:20:22;;;;;;;27.65;16.83;;;;;;;-8.44;100.00;93576.72;2110350;28;20024;-81
2022/01/16 05:21:23;;;;;;;27.08;17.65;;;;;;;-8.35;100.00;93580.16;2105751;28;20024;-81
2022/01/16 05:22:30;;;;;;;27.92;17.52;;;;;;;-8.32;100.00;93566.63;2093448;28;20427;-81
2022/01/16 05:23:31;;;;;;;28.98;18.02;;;;;;;-8.30;100.00;93574.13;2107148;28;20479;-78
2022/01/16 05:24:34;;;;;;;30.52;17.13;;;;;;;-8.17;100.00;93573.34;2100331;28;20465;-82
2022/01/16 05:25:35;;;;;;;30.42;17.40;;;;;;;-8.24;100.00;93573.75;2103942;28;20461;-81
2022/01/16 05:26:39;;;;;;;26.70;16.50;;;;;;;-8.29;100.00;93575.69;2107815;28;20454;-82
2022/01/16 05:27:41;;;;;;;29.55;17.77;;;;;;;-8.36;100.00;93574.22;2120932;27;20035;-81
2022/01/16 05:28:42;;;;;;;29.52;18.25;;;;;;;-8.38;100.00;93567.81;2107195;28;20462;-82
2022/01/16 05:29:42;;;;;;;30.65;18.45;;;;;;;-8.27;100.00;93578.75;2104277;28;20461;-82
2022/01/16 05:30:44;;;;;;;26.90;16.77;;;;;;;-8.11;100.00;93577.41;2090344;28;20028;-83